sensor_id;sensor_type;location;lat;lon;timestamp;P1;durP1;ratioP1;P2;durP2;ratioP2
25824;SDS011;13658;44.534;18.694;2023-01-30T00:00:34;49.72;;;25.02;;
25824;SDS011;13658;44.534;18.694;2023-01-30T00:03:00;46.60;;;22.17;;
25824;SDS011;13658;44.534;18.694;2023-01-30T00:05:26;41.22;;;20.92;;
25824;SDS011;13658;44.534;18.694;2023-01-30T00:07:52;41.60;;;20.25;;
25824;SDS011;13658;44.534;18.694;2023-01-30T00:10:18;43.63;;;21.33;;
25824;SDS011;13658;44.534;18.694;2023-01-30T00:12:44;42.42;;;22.42;;
25824;SDS011;13658;44.534;18.694;2023-01-30T00:15:10;44.33;;;21.73;;
25824;SDS011;13658;44.534;18.694;2023-01-30T00:17:36;39.08;;;22.30;;
25824;SDS011;13658;44.534;18.694;2023-01-30T00:20:02;46.92;;;23.85;;
25824;SDS011;13658;44.534;18.694;2023-01-30T00:22:28;49.15;;;23.80;;
25824;SDS011;13658;44.534;18.694;2023-01-30T00:24:55;49.85;;;24.42;;
25824;SDS011;13658;44.534;18.694;2023-01-30T00:27:20;59.50;;;28.42;;
25824;SDS011;13658;44.534;18.694;2023-01-30T00:29:46;59.85;;;31.17;;
25824;SDS011;13658;44.534;18.694;2023-01-30T00:32:12;115.32;;;49.53;;
25824;SDS011;13658;44.534;18.694;2023-01-30T00:34:39;117.65;;;51.78;;
25824;SDS011;13658;44.534;18.694;2023-01-30T00:37:06;112.60;;;51.65;;
25824;SDS011;13658;44.534;18.694;2023-01-30T00:39:32;114.68;;;51.60;;
25824;SDS011;13658;44.534;18.694;2023-01-30T00:42:00;112.93;;;51.00;;
25824;SDS011;13658;44.534;18.694;2023-01-30T00:44:44;103.65;;;47.97;;
25824;SDS011;13658;44.534;18.694;2023-01-30T00:47:29;110.57;;;47.90;;
25824;SDS011;13658;44.534;18.694;2023-01-30T00:49:54;102.65;;;46.70;;
25824;SDS011;13658;44.534;18.694;2023-01-30T00:52:21;103.40;;;45.22;;
25824;SDS011;13658;44.534;18.694;2023-01-30T00:54:46;69.85;;;33.25;;
25824;SDS011;13658;44.534;18.694;2023-01-30T00:57:15;64.55;;;30.15;;
25824;SDS011;13658;44.534;18.694;2023-01-30T00:59:41;70.18;;;33.85;;
25824;SDS011;13658;44.534;18.694;2023-01-30T01:02:10;76.32;;;33.80;;
25824;SDS011;13658;44.534;18.694;2023-01-30T01:04:36;69.95;;;31.17;;
25824;SDS011;13658;44.534;18.694;2023-01-30T01:07:09;68.80;;;33.28;;
25824;SDS011;13658;44.534;18.694;2023-01-30T01:09:36;73.15;;;35.17;;
25824;SDS011;13658;44.534;18.694;2023-01-30T01:12:03;71.97;;;33.72;;
25824;SDS011;13658;44.534;18.694;2023-01-30T01:14:29;75.88;;;33.85;;
25824;SDS011;13658;44.534;18.694;2023-01-30T01:16:55;72.18;;;33.58;;
25824;SDS011;13658;44.534;18.694;2023-01-30T01:19:21;70.85;;;35.10;;
25824;SDS011;13658;44.534;18.694;2023-01-30T01:21:47;80.85;;;36.28;;
25824;SDS011;13658;44.534;18.694;2023-01-30T01:24:13;74.15;;;33.92;;
25824;SDS011;13658;44.534;18.694;2023-01-30T01:26:40;79.40;;;36.30;;
25824;SDS011;13658;44.534;18.694;2023-01-30T01:29:10;80.53;;;36.78;;
25824;SDS011;13658;44.534;18.694;2023-01-30T01:31:40;79.75;;;37.70;;
25824;SDS011;13658;44.534;18.694;2023-01-30T01:34:07;78.72;;;37.35;;
25824;SDS011;13658;44.534;18.694;2023-01-30T01:36:33;81.63;;;37.90;;
25824;SDS011;13658;44.534;18.694;2023-01-30T01:38:59;80.72;;;38.22;;
25824;SDS011;13658;44.534;18.694;2023-01-30T01:41:25;83.70;;;38.20;;
25824;SDS011;13658;44.534;18.694;2023-01-30T01:47:14;77.05;;;35.67;;
25824;SDS011;13658;44.534;18.694;2023-01-30T01:49:26;80.82;;;39.30;;
25824;SDS011;13658;44.534;18.694;2023-01-30T01:51:59;83.28;;;39.22;;
25824;SDS011;13658;44.534;18.694;2023-01-30T01:54:39;70.57;;;35.35;;
25824;SDS011;13658;44.534;18.694;2023-01-30T01:57:07;78.37;;;36.33;;
25824;SDS011;13658;44.534;18.694;2023-01-30T01:59:42;79.40;;;38.70;;
25824;SDS011;13658;44.534;18.694;2023-01-30T02:02:14;84.33;;;39.93;;
25824;SDS011;13658;44.534;18.694;2023-01-30T02:04:43;86.70;;;38.42;;
25824;SDS011;13658;44.534;18.694;2023-01-30T02:07:28;77.40;;;36.60;;
25824;SDS011;13658;44.534;18.694;2023-01-30T02:10:16;76.30;;;36.15;;
25824;SDS011;13658;44.534;18.694;2023-01-30T02:12:47;69.75;;;34.42;;
25824;SDS011;13658;44.534;18.694;2023-01-30T02:15:16;74.38;;;35.97;;
25824;SDS011;13658;44.534;18.694;2023-01-30T02:17:43;75.05;;;35.35;;
25824;SDS011;13658;44.534;18.694;2023-01-30T02:33:32;75.40;;;34.55;;
25824;SDS011;13658;44.534;18.694;2023-01-30T02:39:10;64.10;;;33.13;;
25824;SDS011;13658;44.534;18.694;2023-01-30T02:41:51;62.60;;;31.20;;
25824;SDS011;13658;44.534;18.694;2023-01-30T02:44:49;73.60;;;33.17;;
25824;SDS011;13658;44.534;18.694;2023-01-30T02:47:28;70.32;;;34.78;;
25824;SDS011;13658;44.534;18.694;2023-01-30T02:50:04;65.93;;;33.92;;
25824;SDS011;13658;44.534;18.694;2023-01-30T02:52:35;65.00;;;31.60;;
25824;SDS011;13658;44.534;18.694;2023-01-30T02:55:24;64.72;;;31.27;;
25824;SDS011;13658;44.534;18.694;2023-01-30T02:57:49;64.60;;;33.40;;
25824;SDS011;13658;44.534;18.694;2023-01-30T03:00:17;69.57;;;32.65;;
25824;SDS011;13658;44.534;18.694;2023-01-30T03:06:09;79.70;;;37.08;;
25824;SDS011;13658;44.534;18.694;2023-01-30T03:11:16;71.05;;;33.42;;
25824;SDS011;13658;44.534;18.694;2023-01-30T03:16:30;75.25;;;35.88;;
25824;SDS011;13658;44.534;18.694;2023-01-30T03:19:04;71.93;;;35.05;;
25824;SDS011;13658;44.534;18.694;2023-01-30T03:21:39;77.35;;;36.47;;
25824;SDS011;13658;44.534;18.694;2023-01-30T03:24:10;73.30;;;36.90;;
25824;SDS011;13658;44.534;18.694;2023-01-30T03:26:38;70.70;;;34.30;;
25824;SDS011;13658;44.534;18.694;2023-01-30T03:29:16;67.97;;;34.10;;
25824;SDS011;13658;44.534;18.694;2023-01-30T03:31:42;64.35;;;31.63;;
25824;SDS011;13658;44.534;18.694;2023-01-30T03:34:08;63.00;;;30.35;;
25824;SDS011;13658;44.534;18.694;2023-01-30T03:36:34;68.00;;;32.50;;
25824;SDS011;13658;44.534;18.694;2023-01-30T03:39:00;70.93;;;32.65;;
25824;SDS011;13658;44.534;18.694;2023-01-30T03:41:26;77.53;;;35.70;;
25824;SDS011;13658;44.534;18.694;2023-01-30T03:43:53;66.53;;;33.08;;
25824;SDS011;13658;44.534;18.694;2023-01-30T03:46:19;69.05;;;33.17;;
25824;SDS011;13658;44.534;18.694;2023-01-30T03:48:45;70.47;;;33.60;;
25824;SDS011;13658;44.534;18.694;2023-01-30T03:51:12;69.78;;;33.75;;
25824;SDS011;13658;44.534;18.694;2023-01-30T03:53:38;71.20;;;34.58;;
25824;SDS011;13658;44.534;18.694;2023-01-30T03:56:04;98.13;;;45.85;;
25824;SDS011;13658;44.534;18.694;2023-01-30T03:58:33;107.97;;;50.03;;
25824;SDS011;13658;44.534;18.694;2023-01-30T04:01:11;98.38;;;44.92;;
25824;SDS011;13658;44.534;18.694;2023-01-30T04:03:39;115.45;;;48.63;;
25824;SDS011;13658;44.534;18.694;2023-01-30T04:06:05;88.50;;;42.55;;
25824;SDS011;13658;44.534;18.694;2023-01-30T04:08:32;96.75;;;42.33;;
25824;SDS011;13658;44.534;18.694;2023-01-30T04:10:58;87.35;;;41.25;;
25824;SDS011;13658;44.534;18.694;2023-01-30T04:13:24;81.20;;;37.53;;
25824;SDS011;13658;44.534;18.694;2023-01-30T04:15:50;79.35;;;36.25;;
25824;SDS011;13658;44.534;18.694;2023-01-30T04:18:52;89.60;;;41.15;;
25824;SDS011;13658;44.534;18.694;2023-01-30T04:21:19;81.97;;;38.22;;
25824;SDS011;13658;44.534;18.694;2023-01-30T04:23:46;71.60;;;33.55;;
25824;SDS011;13658;44.534;18.694;2023-01-30T04:26:12;75.95;;;36.25;;
25824;SDS011;13658;44.534;18.694;2023-01-30T04:28:39;82.30;;;37.50;;
25824;SDS011;13658;44.534;18.694;2023-01-30T04:31:06;67.72;;;32.08;;
25824;SDS011;13658;44.534;18.694;2023-01-30T04:33:35;75.05;;;34.25;;
25824;SDS011;13658;44.534;18.694;2023-01-30T04:36:05;63.25;;;30.45;;
25824;SDS011;13658;44.534;18.694;2023-01-30T04:38:33;72.70;;;34.05;;
25824;SDS011;13658;44.534;18.694;2023-01-30T04:41:00;79.20;;;34.65;;
25824;SDS011;13658;44.534;18.694;2023-01-30T04:43:28;72.70;;;33.67;;
25824;SDS011;13658;44.534;18.694;2023-01-30T04:46:27;67.97;;;29.85;;
25824;SDS011;13658;44.534;18.694;2023-01-30T04:48:54;70.20;;;31.70;;
25824;SDS011;13658;44.534;18.694;2023-01-30T04:51:20;75.90;;;33.67;;
25824;SDS011;13658;44.534;18.694;2023-01-30T04:53:46;75.13;;;34.95;;
25824;SDS011;13658;44.534;18.694;2023-01-30T04:56:12;72.00;;;34.67;;
25824;SDS011;13658;44.534;18.694;2023-01-30T04:58:39;69.57;;;32.65;;
25824;SDS011;13658;44.534;18.694;2023-01-30T05:01:39;68.70;;;32.03;;
25824;SDS011;13658;44.534;18.694;2023-01-30T05:04:00;69.55;;;33.17;;
25824;SDS011;13658;44.534;18.694;2023-01-30T05:06:26;66.10;;;31.05;;
25824;SDS011;13658;44.534;18.694;2023-01-30T05:08:53;64.07;;;28.85;;
25824;SDS011;13658;44.534;18.694;2023-01-30T05:11:21;52.08;;;26.58;;
25824;SDS011;13658;44.534;18.694;2023-01-30T05:13:49;57.05;;;28.58;;
25824;SDS011;13658;44.534;18.694;2023-01-30T05:16:16;58.45;;;27.58;;
25824;SDS011;13658;44.534;18.694;2023-01-30T05:18:43;54.10;;;26.92;;
25824;SDS011;13658;44.534;18.694;2023-01-30T05:21:10;49.22;;;24.20;;
25824;SDS011;13658;44.534;18.694;2023-01-30T05:23:38;51.25;;;26.70;;
25824;SDS011;13658;44.534;18.694;2023-01-30T05:26:05;61.47;;;31.33;;
25824;SDS011;13658;44.534;18.694;2023-01-30T05:28:31;53.67;;;26.55;;
25824;SDS011;13658;44.534;18.694;2023-01-30T05:31:04;57.03;;;27.15;;
25824;SDS011;13658;44.534;18.694;2023-01-30T05:33:31;58.42;;;28.38;;
25824;SDS011;13658;44.534;18.694;2023-01-30T05:35:57;45.50;;;23.25;;
25824;SDS011;13658;44.534;18.694;2023-01-30T05:38:24;48.55;;;23.10;;
25824;SDS011;13658;44.534;18.694;2023-01-30T05:41:00;50.65;;;24.35;;
25824;SDS011;13658;44.534;18.694;2023-01-30T05:43:30;49.67;;;23.90;;
25824;SDS011;13658;44.534;18.694;2023-01-30T05:45:57;48.85;;;25.38;;
25824;SDS011;13658;44.534;18.694;2023-01-30T05:48:24;47.67;;;23.88;;
25824;SDS011;13658;44.534;18.694;2023-01-30T05:50:55;46.28;;;22.50;;
25824;SDS011;13658;44.534;18.694;2023-01-30T05:53:23;48.50;;;23.73;;
25824;SDS011;13658;44.534;18.694;2023-01-30T05:56:01;45.58;;;22.77;;
25824;SDS011;13658;44.534;18.694;2023-01-30T05:58:30;39.60;;;20.58;;
25824;SDS011;13658;44.534;18.694;2023-01-30T06:01:00;42.35;;;21.80;;
25824;SDS011;13658;44.534;18.694;2023-01-30T06:03:27;43.58;;;21.48;;
25824;SDS011;13658;44.534;18.694;2023-01-30T06:05:53;41.28;;;21.65;;
25824;SDS011;13658;44.534;18.694;2023-01-30T06:08:19;44.28;;;21.75;;
25824;SDS011;13658;44.534;18.694;2023-01-30T06:10:45;46.45;;;21.65;;
25824;SDS011;13658;44.534;18.694;2023-01-30T06:13:11;41.72;;;20.88;;
25824;SDS011;13658;44.534;18.694;2023-01-30T06:15:37;42.30;;;19.40;;
25824;SDS011;13658;44.534;18.694;2023-01-30T06:18:03;40.38;;;19.73;;
25824;SDS011;13658;44.534;18.694;2023-01-30T06:20:29;47.55;;;21.05;;
25824;SDS011;13658;44.534;18.694;2023-01-30T06:22:56;45.67;;;21.75;;
25824;SDS011;13658;44.534;18.694;2023-01-30T06:25:21;46.33;;;23.20;;
25824;SDS011;13658;44.534;18.694;2023-01-30T06:27:48;58.35;;;25.60;;
25824;SDS011;13658;44.534;18.694;2023-01-30T06:30:14;63.42;;;27.58;;
25824;SDS011;13658;44.534;18.694;2023-01-30T06:32:40;66.65;;;29.13;;
25824;SDS011;13658;44.534;18.694;2023-01-30T06:35:07;60.08;;;28.35;;
25824;SDS011;13658;44.534;18.694;2023-01-30T06:37:33;62.15;;;28.23;;
25824;SDS011;13658;44.534;18.694;2023-01-30T06:39:59;59.80;;;29.27;;
25824;SDS011;13658;44.534;18.694;2023-01-30T06:42:25;65.78;;;30.77;;
25824;SDS011;13658;44.534;18.694;2023-01-30T06:44:51;64.40;;;31.25;;
25824;SDS011;13658;44.534;18.694;2023-01-30T06:47:17;67.80;;;31.63;;
25824;SDS011;13658;44.534;18.694;2023-01-30T06:49:43;64.88;;;31.92;;
25824;SDS011;13658;44.534;18.694;2023-01-30T06:52:09;73.22;;;34.97;;
25824;SDS011;13658;44.534;18.694;2023-01-30T06:54:35;71.88;;;32.38;;
25824;SDS011;13658;44.534;18.694;2023-01-30T06:57:00;64.97;;;30.05;;
25824;SDS011;13658;44.534;18.694;2023-01-30T06:59:26;64.03;;;30.38;;
25824;SDS011;13658;44.534;18.694;2023-01-30T07:01:52;74.90;;;34.30;;
25824;SDS011;13658;44.534;18.694;2023-01-30T07:04:18;68.20;;;34.53;;
25824;SDS011;13658;44.534;18.694;2023-01-30T07:06:44;79.75;;;37.45;;
25824;SDS011;13658;44.534;18.694;2023-01-30T07:09:11;71.55;;;34.65;;
25824;SDS011;13658;44.534;18.694;2023-01-30T07:11:36;77.13;;;35.90;;
25824;SDS011;13658;44.534;18.694;2023-01-30T07:14:03;85.63;;;40.70;;
25824;SDS011;13658;44.534;18.694;2023-01-30T07:16:28;83.68;;;39.67;;
25824;SDS011;13658;44.534;18.694;2023-01-30T07:18:55;92.47;;;41.80;;
25824;SDS011;13658;44.534;18.694;2023-01-30T07:21:25;92.55;;;42.88;;
25824;SDS011;13658;44.534;18.694;2023-01-30T07:23:52;99.90;;;46.50;;
25824;SDS011;13658;44.534;18.694;2023-01-30T07:26:18;116.18;;;50.60;;
25824;SDS011;13658;44.534;18.694;2023-01-30T07:28:44;122.90;;;54.30;;
25824;SDS011;13658;44.534;18.694;2023-01-30T07:31:10;124.38;;;54.75;;
25824;SDS011;13658;44.534;18.694;2023-01-30T07:33:36;106.22;;;48.28;;
25824;SDS011;13658;44.534;18.694;2023-01-30T07:36:02;116.57;;;51.08;;
25824;SDS011;13658;44.534;18.694;2023-01-30T07:38:28;114.93;;;50.65;;
25824;SDS011;13658;44.534;18.694;2023-01-30T07:40:55;134.32;;;59.20;;
25824;SDS011;13658;44.534;18.694;2023-01-30T07:43:22;164.45;;;74.78;;
25824;SDS011;13658;44.534;18.694;2023-01-30T07:45:48;123.78;;;54.92;;
25824;SDS011;13658;44.534;18.694;2023-01-30T07:48:15;120.65;;;52.92;;
25824;SDS011;13658;44.534;18.694;2023-01-30T07:50:42;126.85;;;54.63;;
25824;SDS011;13658;44.534;18.694;2023-01-30T07:53:09;142.38;;;58.67;;
25824;SDS011;13658;44.534;18.694;2023-01-30T07:55:37;131.18;;;56.22;;
25824;SDS011;13658;44.534;18.694;2023-01-30T07:58:03;127.82;;;53.70;;
25824;SDS011;13658;44.534;18.694;2023-01-30T08:00:30;129.52;;;55.97;;
25824;SDS011;13658;44.534;18.694;2023-01-30T08:02:56;118.63;;;51.90;;
25824;SDS011;13658;44.534;18.694;2023-01-30T08:05:23;102.07;;;42.80;;
25824;SDS011;13658;44.534;18.694;2023-01-30T08:07:49;85.47;;;37.97;;
25824;SDS011;13658;44.534;18.694;2023-01-30T08:10:15;71.93;;;33.20;;
25824;SDS011;13658;44.534;18.694;2023-01-30T08:12:41;74.30;;;34.80;;
25824;SDS011;13658;44.534;18.694;2023-01-30T08:15:08;63.88;;;28.60;;
25824;SDS011;13658;44.534;18.694;2023-01-30T08:17:35;59.30;;;26.90;;
25824;SDS011;13658;44.534;18.694;2023-01-30T08:20:01;61.50;;;28.33;;
25824;SDS011;13658;44.534;18.694;2023-01-30T08:22:28;57.53;;;27.20;;
25824;SDS011;13658;44.534;18.694;2023-01-30T08:24:54;62.90;;;28.98;;
25824;SDS011;13658;44.534;18.694;2023-01-30T08:27:20;69.78;;;29.80;;
25824;SDS011;13658;44.534;18.694;2023-01-30T08:29:46;68.78;;;29.70;;
25824;SDS011;13658;44.534;18.694;2023-01-30T08:32:12;64.30;;;30.05;;
25824;SDS011;13658;44.534;18.694;2023-01-30T08:34:38;45.33;;;20.05;;
25824;SDS011;13658;44.534;18.694;2023-01-30T08:37:04;33.60;;;14.65;;
25824;SDS011;13658;44.534;18.694;2023-01-30T08:39:30;37.58;;;14.73;;
25824;SDS011;13658;44.534;18.694;2023-01-30T08:41:55;33.03;;;15.20;;
25824;SDS011;13658;44.534;18.694;2023-01-30T08:44:21;38.20;;;17.05;;
25824;SDS011;13658;44.534;18.694;2023-01-30T08:46:47;37.03;;;18.42;;
25824;SDS011;13658;44.534;18.694;2023-01-30T08:49:13;52.67;;;24.30;;
25824;SDS011;13658;44.534;18.694;2023-01-30T08:51:39;48.30;;;23.55;;
25824;SDS011;13658;44.534;18.694;2023-01-30T08:54:05;33.53;;;16.23;;
25824;SDS011;13658;44.534;18.694;2023-01-30T08:56:34;41.05;;;19.15;;
25824;SDS011;13658;44.534;18.694;2023-01-30T08:59:00;42.20;;;19.10;;
25824;SDS011;13658;44.534;18.694;2023-01-30T09:01:27;38.05;;;17.35;;
25824;SDS011;13658;44.534;18.694;2023-01-30T09:03:53;37.22;;;17.65;;
25824;SDS011;13658;44.534;18.694;2023-01-30T09:06:19;43.58;;;19.35;;
25824;SDS011;13658;44.534;18.694;2023-01-30T09:08:44;46.15;;;20.90;;
25824;SDS011;13658;44.534;18.694;2023-01-30T09:11:10;47.22;;;21.88;;
25824;SDS011;13658;44.534;18.694;2023-01-30T09:13:37;47.10;;;22.60;;
25824;SDS011;13658;44.534;18.694;2023-01-30T09:16:08;52.30;;;24.02;;
25824;SDS011;13658;44.534;18.694;2023-01-30T09:18:38;54.65;;;26.63;;
25824;SDS011;13658;44.534;18.694;2023-01-30T09:21:06;53.55;;;26.70;;
25824;SDS011;13658;44.534;18.694;2023-01-30T09:23:33;50.90;;;23.67;;
25824;SDS011;13658;44.534;18.694;2023-01-30T09:25:59;51.00;;;22.95;;
25824;SDS011;13658;44.534;18.694;2023-01-30T09:28:26;47.75;;;22.88;;
25824;SDS011;13658;44.534;18.694;2023-01-30T09:30:55;48.95;;;22.60;;
25824;SDS011;13658;44.534;18.694;2023-01-30T09:33:22;48.20;;;22.33;;
25824;SDS011;13658;44.534;18.694;2023-01-30T09:35:48;57.72;;;24.70;;
25824;SDS011;13658;44.534;18.694;2023-01-30T09:38:15;56.97;;;24.67;;
25824;SDS011;13658;44.534;18.694;2023-01-30T09:43:18;42.03;;;23.15;;
25824;SDS011;13658;44.534;18.694;2023-01-30T09:48:23;39.72;;;21.95;;
25824;SDS011;13658;44.534;18.694;2023-01-30T09:54:19;47.03;;;24.88;;
25824;SDS011;13658;44.534;18.694;2023-01-30T09:57:22;42.72;;;23.48;;
25824;SDS011;13658;44.534;18.694;2023-01-30T10:00:16;40.08;;;22.92;;
25824;SDS011;13658;44.534;18.694;2023-01-30T10:11:04;45.25;;;24.98;;
25824;SDS011;13658;44.534;18.694;2023-01-30T10:28:09;51.05;;;26.50;;
25824;SDS011;13658;44.534;18.694;2023-01-30T10:30:42;47.83;;;26.15;;
25824;SDS011;13658;44.534;18.694;2023-01-30T10:33:17;48.65;;;26.80;;
25824;SDS011;13658;44.534;18.694;2023-01-30T10:36:21;65.78;;;35.30;;
25824;SDS011;13658;44.534;18.694;2023-01-30T10:38:51;51.13;;;26.85;;
25824;SDS011;13658;44.534;18.694;2023-01-30T10:41:35;49.28;;;26.23;;
25824;SDS011;13658;44.534;18.694;2023-01-30T10:44:09;48.03;;;26.63;;
25824;SDS011;13658;44.534;18.694;2023-01-30T10:46:42;51.78;;;27.27;;
25824;SDS011;13658;44.534;18.694;2023-01-30T10:49:31;44.78;;;25.08;;
25824;SDS011;13658;44.534;18.694;2023-01-30T10:54:47;53.65;;;30.40;;
25824;SDS011;13658;44.534;18.694;2023-01-30T11:00:26;54.63;;;30.58;;
25824;SDS011;13658;44.534;18.694;2023-01-30T11:05:49;54.65;;;29.73;;
25824;SDS011;13658;44.534;18.694;2023-01-30T11:08:19;61.75;;;34.90;;
25824;SDS011;13658;44.534;18.694;2023-01-30T11:10:50;55.28;;;31.13;;
25824;SDS011;13658;44.534;18.694;2023-01-30T11:13:21;55.83;;;30.73;;
25824;SDS011;13658;44.534;18.694;2023-01-30T11:15:58;54.42;;;29.23;;
25824;SDS011;13658;44.534;18.694;2023-01-30T11:18:28;52.28;;;28.25;;
25824;SDS011;13658;44.534;18.694;2023-01-30T11:23:38;55.60;;;28.63;;
25824;SDS011;13658;44.534;18.694;2023-01-30T11:26:21;54.50;;;27.60;;
25824;SDS011;13658;44.534;18.694;2023-01-30T11:28:50;59.90;;;29.20;;
25824;SDS011;13658;44.534;18.694;2023-01-30T11:31:20;61.20;;;29.02;;
25824;SDS011;13658;44.534;18.694;2023-01-30T11:33:59;59.40;;;28.83;;
25824;SDS011;13658;44.534;18.694;2023-01-30T11:36:29;61.20;;;29.25;;
25824;SDS011;13658;44.534;18.694;2023-01-30T11:39:17;64.13;;;29.80;;
25824;SDS011;13658;44.534;18.694;2023-01-30T11:47:23;59.92;;;30.33;;
25824;SDS011;13658;44.534;18.694;2023-01-30T11:49:52;67.03;;;32.47;;
25824;SDS011;13658;44.534;18.694;2023-01-30T11:52:34;65.03;;;31.60;;
25824;SDS011;13658;44.534;18.694;2023-01-30T11:55:03;68.47;;;32.72;;
25824;SDS011;13658;44.534;18.694;2023-01-30T11:57:39;64.95;;;31.13;;
25824;SDS011;13658;44.534;18.694;2023-01-30T12:03:14;64.75;;;30.63;;
25824;SDS011;13658;44.534;18.694;2023-01-30T12:05:43;65.18;;;31.98;;
25824;SDS011;13658;44.534;18.694;2023-01-30T12:10:49;66.85;;;30.98;;
25824;SDS011;13658;44.534;18.694;2023-01-30T12:13:38;67.43;;;31.48;;
25824;SDS011;13658;44.534;18.694;2023-01-30T12:16:13;65.18;;;30.90;;
25824;SDS011;13658;44.534;18.694;2023-01-30T12:19:02;65.88;;;33.85;;
25824;SDS011;13658;44.534;18.694;2023-01-30T12:21:42;68.22;;;32.63;;
25824;SDS011;13658;44.534;18.694;2023-01-30T12:27:03;65.72;;;31.73;;
25824;SDS011;13658;44.534;18.694;2023-01-30T12:32:41;64.50;;;32.20;;
25824;SDS011;13658;44.534;18.694;2023-01-30T12:35:17;55.85;;;26.92;;
25824;SDS011;13658;44.534;18.694;2023-01-30T12:43:33;63.28;;;29.20;;
25824;SDS011;13658;44.534;18.694;2023-01-30T12:46:56;63.72;;;31.80;;
25824;SDS011;13658;44.534;18.694;2023-01-30T12:49:04;61.53;;;30.48;;
25824;SDS011;13658;44.534;18.694;2023-01-30T12:52:31;62.97;;;30.65;;
25824;SDS011;13658;44.534;18.694;2023-01-30T12:54:53;56.22;;;28.33;;
25824;SDS011;13658;44.534;18.694;2023-01-30T13:00:03;49.47;;;24.33;;
25824;SDS011;13658;44.534;18.694;2023-01-30T13:03:08;62.65;;;29.08;;
25824;SDS011;13658;44.534;18.694;2023-01-30T13:14:49;53.53;;;26.52;;
25824;SDS011;13658;44.534;18.694;2023-01-30T13:28:05;47.88;;;22.98;;
25824;SDS011;13658;44.534;18.694;2023-01-30T13:30:44;53.35;;;25.60;;
25824;SDS011;13658;44.534;18.694;2023-01-30T13:38:59;47.17;;;24.17;;
25824;SDS011;13658;44.534;18.694;2023-01-30T13:41:31;52.03;;;25.23;;
25824;SDS011;13658;44.534;18.694;2023-01-30T13:44:14;53.13;;;25.33;;
25824;SDS011;13658;44.534;18.694;2023-01-30T13:47:22;51.60;;;25.63;;
25824;SDS011;13658;44.534;18.694;2023-01-30T14:09:41;60.22;;;30.10;;
25824;SDS011;13658;44.534;18.694;2023-01-30T14:12:24;56.47;;;27.63;;
25824;SDS011;13658;44.534;18.694;2023-01-30T14:14:57;55.08;;;27.67;;
25824;SDS011;13658;44.534;18.694;2023-01-30T14:17:29;56.70;;;29.00;;
25824;SDS011;13658;44.534;18.694;2023-01-30T14:20:14;58.00;;;27.33;;
25824;SDS011;13658;44.534;18.694;2023-01-30T14:22:54;55.83;;;25.42;;
25824;SDS011;13658;44.534;18.694;2023-01-30T14:25:30;60.15;;;28.67;;
25824;SDS011;13658;44.534;18.694;2023-01-30T14:35:48;51.47;;;25.05;;
25824;SDS011;13658;44.534;18.694;2023-01-30T14:38:23;50.15;;;26.45;;
25824;SDS011;13658;44.534;18.694;2023-01-30T15:02:20;71.35;;;32.13;;
25824;SDS011;13658;44.534;18.694;2023-01-30T15:04:44;61.50;;;28.95;;
25824;SDS011;13658;44.534;18.694;2023-01-30T15:07:27;66.28;;;29.52;;
25824;SDS011;13658;44.534;18.694;2023-01-30T15:10:00;63.42;;;28.58;;
25824;SDS011;13658;44.534;18.694;2023-01-30T15:26:53;79.35;;;34.70;;
25824;SDS011;13658;44.534;18.694;2023-01-30T15:29:54;73.28;;;31.90;;
25824;SDS011;13658;44.534;18.694;2023-01-30T15:32:42;133.85;;;62.65;;
25824;SDS011;13658;44.534;18.694;2023-01-30T15:37:50;175.48;;;79.55;;
25824;SDS011;13658;44.534;18.694;2023-01-30T15:40:19;247.70;;;110.80;;
25824;SDS011;13658;44.534;18.694;2023-01-30T15:51:36;271.90;;;118.55;;
25824;SDS011;13658;44.534;18.694;2023-01-30T15:54:07;257.55;;;106.25;;
25824;SDS011;13658;44.534;18.694;2023-01-30T15:56:35;248.63;;;105.10;;
25824;SDS011;13658;44.534;18.694;2023-01-30T15:59:04;272.42;;;115.70;;
25824;SDS011;13658;44.534;18.694;2023-01-30T16:01:31;250.20;;;110.72;;
25824;SDS011;13658;44.534;18.694;2023-01-30T16:03:57;275.58;;;119.20;;
25824;SDS011;13658;44.534;18.694;2023-01-30T16:06:36;267.38;;;115.70;;
25824;SDS011;13658;44.534;18.694;2023-01-30T16:09:03;266.30;;;117.57;;
25824;SDS011;13658;44.534;18.694;2023-01-30T16:11:33;266.08;;;121.00;;
25824;SDS011;13658;44.534;18.694;2023-01-30T16:14:04;262.83;;;119.10;;
25824;SDS011;13658;44.534;18.694;2023-01-30T16:16:31;259.23;;;120.13;;
25824;SDS011;13658;44.534;18.694;2023-01-30T16:19:00;257.13;;;120.45;;
25824;SDS011;13658;44.534;18.694;2023-01-30T16:21:30;249.23;;;111.93;;
25824;SDS011;13658;44.534;18.694;2023-01-30T16:26:47;177.93;;;75.20;;
25824;SDS011;13658;44.534;18.694;2023-01-30T16:29:16;139.40;;;61.85;;
25824;SDS011;13658;44.534;18.694;2023-01-30T16:31:45;130.63;;;58.55;;
25824;SDS011;13658;44.534;18.694;2023-01-30T16:34:32;127.85;;;59.05;;
25824;SDS011;13658;44.534;18.694;2023-01-30T16:37:25;129.38;;;57.67;;
25824;SDS011;13658;44.534;18.694;2023-01-30T16:43:00;91.47;;;41.37;;
25824;SDS011;13658;44.534;18.694;2023-01-30T16:48:22;125.45;;;61.03;;
25824;SDS011;13658;44.534;18.694;2023-01-30T16:53:23;162.00;;;73.30;;
25824;SDS011;13658;44.534;18.694;2023-01-30T16:56:04;174.20;;;77.85;;
25824;SDS011;13658;44.534;18.694;2023-01-30T16:58:34;185.80;;;84.90;;
25824;SDS011;13658;44.534;18.694;2023-01-30T17:01:06;200.20;;;89.10;;
25824;SDS011;13658;44.534;18.694;2023-01-30T17:03:33;219.95;;;95.55;;
25824;SDS011;13658;44.534;18.694;2023-01-30T17:06:02;203.20;;;93.78;;
25824;SDS011;13658;44.534;18.694;2023-01-30T17:11:29;214.30;;;94.13;;
25824;SDS011;13658;44.534;18.694;2023-01-30T17:14:09;242.15;;;105.78;;
25824;SDS011;13658;44.534;18.694;2023-01-30T17:16:43;287.58;;;133.38;;
25824;SDS011;13658;44.534;18.694;2023-01-30T17:19:34;246.73;;;112.28;;
25824;SDS011;13658;44.534;18.694;2023-01-30T17:22:01;211.52;;;102.25;;
25824;SDS011;13658;44.534;18.694;2023-01-30T17:24:29;236.32;;;106.45;;
25824;SDS011;13658;44.534;18.694;2023-01-30T17:26:56;229.20;;;105.97;;
25824;SDS011;13658;44.534;18.694;2023-01-30T17:29:28;227.77;;;106.47;;
25824;SDS011;13658;44.534;18.694;2023-01-30T17:31:56;210.48;;;97.78;;
25824;SDS011;13658;44.534;18.694;2023-01-30T17:34:22;207.20;;;98.10;;
25824;SDS011;13658;44.534;18.694;2023-01-30T17:36:52;183.30;;;81.85;;
25824;SDS011;13658;44.534;18.694;2023-01-30T17:39:21;178.27;;;84.43;;
25824;SDS011;13658;44.534;18.694;2023-01-30T17:41:51;210.10;;;98.35;;
25824;SDS011;13658;44.534;18.694;2023-01-30T17:44:17;206.93;;;96.00;;
25824;SDS011;13658;44.534;18.694;2023-01-30T17:46:44;197.32;;;93.80;;
25824;SDS011;13658;44.534;18.694;2023-01-30T17:49:15;215.23;;;96.32;;
25824;SDS011;13658;44.534;18.694;2023-01-30T17:51:43;240.95;;;105.70;;
25824;SDS011;13658;44.534;18.694;2023-01-30T17:54:09;246.25;;;112.65;;
25824;SDS011;13658;44.534;18.694;2023-01-30T17:56:37;237.40;;;111.30;;